Time;durP1;ratioP1;P1;durP2;ratioP2;P2;SDS_P1;SDS_P2;PMS_P1;PMS_P2;Temp;Humidity;BMP_temperature;BMP_pressure;BME280_temperature;BME280_humidity;BME280_pressure;Samples;Min_cycle;Max_cycle;Signal;HPM_P1;HPM_P2
2022/05/24 04:00:44;;;;;;;7.10;6.60;;;16.50;99.90;;;;;;5867442;23;20469;-63
2022/05/24 04:03:11;;;;;;;6.53;6.13;;;16.40;99.90;;;;;;4996634;28;20441;-64
2022/05/24 04:05:38;;;;;;;6.10;5.60;;;16.40;99.90;;;;;;4997369;28;20531;-64
2022/05/24 04:08:06;;;;;;;7.00;6.50;;;16.50;99.90;;;;;;4995185;28;20496;-64
2022/05/24 04:10:33;;;;;;;6.20;5.70;;;16.50;99.90;;;;;;4994421;28;20474;-64
2022/05/24 04:13:01;;;;;;;5.80;5.30;;;16.60;99.90;;;;;;4994138;28;20465;-64
2022/05/24 04:15:28;;;;;;;6.50;6.10;;;16.60;99.90;;;;;;4994176;28;20458;-64
2022/05/24 04:17:56;;;;;;;8.83;6.60;;;16.60;99.90;;;;;;4994103;28;20504;-64
2022/05/24 04:20:25;;;;;;;6.70;6.27;;;16.60;99.90;;;;;;4993835;28;20481;-63
2022/05/24 04:22:53;;;;;;;6.53;6.10;;;16.50;99.90;;;;;;4993830;28;20541;-63
2022/05/24 04:25:20;;;;;;;7.53;6.83;;;16.50;99.90;;;;;;4993825;28;20473;-64
2022/05/24 04:27:47;;;;;;;6.00;5.60;;;16.60;99.90;;;;;;4994057;28;20458;-63
2022/05/24 04:30:15;;;;;;;5.50;5.20;;;16.60;99.90;;;;;;4993878;28;20461;-64
2022/05/24 04:32:42;;;;;;;6.03;5.63;;;16.60;99.90;;;;;;4993686;28;20964;-63
2022/05/24 04:35:11;;;;;;;6.23;5.73;;;16.70;99.90;;;;;;4994729;28;20933;-64
2022/05/24 04:37:38;;;;;;;6.80;6.40;;;16.70;99.90;;;;;;4997419;28;20504;-64
2022/05/24 04:40:06;;;;;;;7.07;6.57;;;16.70;99.90;;;;;;4997156;28;20940;-63
2022/05/24 04:42:32;;;;;;;6.87;6.47;;;16.60;99.90;;;;;;4997475;28;20469;-64
2022/05/24 04:45:00;;;;;;;6.93;6.37;;;16.60;99.90;;;;;;4997089;28;20488;-63
2022/05/24 04:47:29;;;;;;;7.57;6.97;;;16.60;99.90;;;;;;4997196;28;20221;-63
2022/05/24 04:49:58;;;;;;;6.90;6.40;;;16.70;99.90;;;;;;4997347;28;20453;-63
2022/05/24 04:52:28;;;;;;;6.93;6.53;;;16.70;99.90;;;;;;4997994;28;20480;-62
2022/05/24 04:54:55;;;;;;;6.80;6.30;;;16.70;99.90;;;;;;4996805;28;20438;-64
2022/05/24 04:57:22;;;;;;;6.87;6.33;;;16.60;99.90;;;;;;4996942;28;20461;-63
2022/05/24 04:59:49;;;;;;;5.97;5.57;;;16.60;99.90;;;;;;4996754;28;20454;-63
2022/05/24 05:02:16;;;;;;;5.73;5.30;;;16.70;99.90;;;;;;4996339;28;21102;-62
2022/05/24 05:04:43;;;;;;;5.83;5.43;;;16.70;99.90;;;;;;4996650;28;20481;-63
2022/05/24 05:07:09;;;;;;;5.60;5.10;;;16.80;99.90;;;;;;4996524;28;20458;-62
2022/05/24 05:09:39;;;;;;;6.30;5.80;;;16.80;99.90;;;;;;4996521;28;20461;-62
2022/05/24 05:12:08;;;;;;;5.50;5.10;;;16.90;99.90;;;;;;4996691;28;20474;-62
2022/05/24 05:14:35;;;;;;;6.20;5.80;;;17.00;99.90;;;;;;4996469;28;20457;-62
2022/05/24 05:17:02;;;;;;;6.57;6.00;;;17.00;99.90;;;;;;4996592;28;20468;-62
2022/05/24 05:19:29;;;;;;;6.60;6.00;;;17.10;99.90;;;;;;4996471;28;20454;-62
2022/05/24 05:21:57;;;;;;;6.37;5.87;;;17.10;99.90;;;;;;4995962;28;20988;-63
2022/05/24 05:24:24;;;;;;;4.73;4.50;;;17.20;99.90;;;;;;4996266;28;20455;-63
2022/05/24 05:26:52;;;;;;;5.67;5.27;;;17.20;99.90;;;;;;4996243;28;20457;-63
2022/05/24 05:31:16;;;;;;;6.43;5.70;;;17.30;99.90;;;;;;4996142;28;20458;-63
2022/05/24 05:32:05;;;;;;;6.13;5.57;;;17.40;99.90;;;;;;4995966;28;20469;-62
2022/05/24 05:34:32;;;;;;;6.50;6.00;;;17.40;99.90;;;;;;4995892;28;20794;-63
2022/05/24 05:36:59;;;;;;;6.60;5.40;;;17.50;99.90;;;;;;4996139;28;20814;-63
2022/05/24 05:39:26;;;;;;;5.57;5.27;;;17.60;99.90;;;;;;4996098;28;20460;-63
2022/05/24 05:41:54;;;;;;;5.23;4.73;;;17.60;99.90;;;;;;4996064;28;20481;-63
2022/05/24 05:44:21;;;;;;;5.03;4.53;;;17.80;99.90;;;;;;4995679;28;20461;-63
2022/05/24 05:46:47;;;;;;;4.40;4.10;;;17.90;99.90;;;;;;4995245;28;20988;-63
2022/05/24 05:49:15;;;;;;;5.23;4.83;;;17.90;99.90;;;;;;4995939;28;20461;-63
2022/05/24 05:51:42;;;;;;;5.13;4.80;;;18.00;99.90;;;;;;4995679;28;20489;-63
2022/05/24 05:54:09;;;;;;;4.70;4.50;;;18.10;99.90;;;;;;4995774;28;20516;-63
2022/05/24 05:56:35;;;;;;;5.10;4.70;;;18.20;99.90;;;;;;4998124;28;20456;-63
2022/05/24 05:59:03;;;;;;;4.67;4.40;;;18.30;99.90;;;;;;5000345;28;20465;-63
2022/05/24 06:01:31;;;;;;;5.30;4.80;;;18.30;99.90;;;;;;4999903;28;20486;-63
2022/05/24 06:03:58;;;;;;;5.37;5.07;;;18.40;99.90;;;;;;4996043;28;20457;-63
2022/05/24 06:06:28;;;;;;;6.10;5.10;;;18.40;99.90;;;;;;4995647;28;20473;-63
2022/05/24 06:08:55;;;;;;;5.03;4.73;;;18.40;99.90;;;;;;4995318;28;20959;-63
2022/05/24 06:11:23;;;;;;;5.30;4.90;;;18.50;99.90;;;;;;4995399;28;20482;-64
2022/05/24 06:13:50;;;;;;;6.10;3.53;;;18.60;99.90;;;;;;4995468;28;20461;-63
2022/05/24 06:16:18;;;;;;;2.73;2.63;;;18.90;99.90;;;;;;4995117;28;20454;-63
2022/05/24 06:18:45;;;;;;;3.40;2.50;;;19.10;99.90;;;;;;4995546;28;20462;-63
2022/05/24 06:21:11;;;;;;;1.90;1.77;;;19.30;99.90;;;;;;4995361;28;20478;-63
2022/05/24 06:23:38;;;;;;;2.60;2.47;;;19.40;99.90;;;;;;4995357;28;20835;-63
2022/05/24 06:26:05;;;;;;;2.80;2.03;;;19.50;99.90;;;;;;4995244;28;20481;-63
2022/05/24 06:28:31;;;;;;;3.73;1.80;;;19.50;99.90;;;;;;4995291;28;20458;-63
2022/05/24 06:30:58;;;;;;;2.03;1.67;;;19.50;99.90;;;;;;4995098;28;20474;-63
2022/05/24 06:33:26;;;;;;;1.87;1.77;;;19.50;99.90;;;;;;4995131;28;20461;-63
2022/05/24 06:35:54;;;;;;;3.70;1.90;;;19.50;99.90;;;;;;4995245;28;20878;-63
2022/05/24 06:38:21;;;;;;;3.27;1.93;;;19.50;99.90;;;;;;4995156;28;20453;-63
2022/05/24 06:40:47;;;;;;;3.27;1.80;;;19.50;99.90;;;;;;4995205;28;20528;-63
2022/05/24 06:43:15;;;;;;;1.87;1.77;;;19.40;99.90;;;;;;4995004;28;20545;-63
2022/05/24 06:45:42;;;;;;;2.20;2.07;;;19.40;99.90;;;;;;4994952;28;20477;-63
2022/05/24 06:48:10;;;;;;;3.00;1.87;;;19.30;99.90;;;;;;4994851;28;20465;-63
2022/05/24 06:50:38;;;;;;;2.07;1.87;;;19.20;99.90;;;;;;4995139;28;20517;-63
2022/05/24 06:53:05;;;;;;;2.70;2.00;;;19.10;99.90;;;;;;4994630;28;20464;-63
2022/05/24 06:55:32;;;;;;;3.40;1.93;;;19.00;99.90;;;;;;4994570;28;20937;-63
2022/05/24 06:57:58;;;;;;;2.07;1.97;;;18.90;99.90;;;;;;4994156;28;20457;-63
2022/05/24 07:03:12;;;;;;;7.97;2.03;;;18.70;99.90;;;;;;4995181;28;20418;-64
2022/05/24 07:05:41;;;;;;;7.43;1.70;;;18.20;99.90;;;;;;5002724;28;20477;-63
2022/05/24 07:08:08;;;;;;;4.13;1.17;;;17.70;99.90;;;;;;4999229;28;20971;-62
2022/05/24 07:10:36;;;;;;;1.90;1.03;;;17.20;99.90;;;;;;4995456;28;20487;-62
2022/05/24 07:13:05;;;;;;;9.37;1.30;;;16.70;99.90;;;;;;4994205;28;20952;-62
2022/05/24 07:15:32;;;;;;;2.10;0.73;;;16.00;99.90;;;;;;4994625;28;20457;-62
2022/05/24 07:17:59;;;;;;;7.17;1.50;;;15.60;99.90;;;;;;4994517;28;20457;-62
2022/05/24 07:20:27;;;;;;;1.70;0.90;;;15.30;99.90;;;;;;4994440;28;20536;-62
2022/05/24 07:23:07;;;;;;;2.47;1.00;;;15.10;99.90;;;;;;4994533;28;20464;-62
2022/05/24 07:25:33;;;;;;;3.20;1.07;;;15.00;99.90;;;;;;4994531;28;20884;-62
2022/05/24 07:28:00;;;;;;;1.17;0.80;;;14.80;99.90;;;;;;4994421;28;20456;-62
2022/05/24 07:30:27;;;;;;;0.70;0.70;;;14.80;99.90;;;;;;4994117;28;20969;-64
2022/05/24 07:32:53;;;;;;;2.30;0.70;;;14.80;99.90;;;;;;4994231;28;20458;-63
2022/05/24 07:35:20;;;;;;;4.23;1.00;;;14.80;99.90;;;;;;4994612;28;20460;-63
2022/05/24 07:37:47;;;;;;;1.03;0.90;;;14.80;99.90;;;;;;4994612;28;20457;-63
2022/05/24 07:45:49;;;;;;;1.33;0.83;;;15.00;99.90;;;;;;4994589;28;20957;-63
2022/05/24 07:48:17;;;;;;;4.57;1.20;;;15.10;99.90;;;;;;4995353;28;20444;-64
2022/05/24 07:50:44;;;;;;;0.70;0.70;;;15.20;99.90;;;;;;4994353;28;20477;-64
2022/05/24 07:53:11;;;;;;;2.77;2.23;;;15.30;99.90;;;;;;4994399;28;20454;-63
2022/05/24 07:55:39;;;;;;;0.80;0.80;;;15.40;99.90;;;;;;4995280;28;20943;-64
2022/05/24 07:58:06;;;;;;;1.10;1.10;;;15.60;99.90;;;;;;4997369;28;20473;-63
2022/05/24 08:00:34;;;;;;;0.90;0.90;;;15.70;99.90;;;;;;4996882;28;20481;-63
2022/05/24 08:03:02;;;;;;;1.20;0.80;;;15.80;99.90;;;;;;4995363;28;20964;-63
2022/05/24 08:05:32;;;;;;;1.77;0.90;;;15.80;99.90;;;;;;4994362;28;20489;-63
2022/05/24 08:08:00;;;;;;;0.83;0.83;;;15.80;99.90;;;;;;4994101;28;20905;-63
2022/05/24 08:10:28;;;;;;;1.27;1.00;;;15.80;99.90;;;;;;4997512;28;20457;-63
2022/05/24 08:12:56;;;;;;;1.43;0.90;;;15.90;99.90;;;;;;4998256;28;20453;-64
2022/05/24 08:15:25;;;;;;;1.07;0.87;;;15.90;99.90;;;;;;4998101;28;20461;-63
2022/05/24 08:17:52;;;;;;;1.03;0.80;;;16.10;99.90;;;;;;4998181;28;20553;-63
2022/05/24 08:20:19;;;;;;;1.43;1.33;;;16.20;99.90;;;;;;4997909;28;20453;-63
2022/05/24 08:22:46;;;;;;;0.60;0.60;;;16.20;99.90;;;;;;4997947;28;20960;-63
2022/05/24 08:25:13;;;;;;;1.03;0.97;;;16.30;99.90;;;;;;4997973;28;20457;-64
2022/05/24 08:27:40;;;;;;;0.80;0.80;;;16.40;99.90;;;;;;4998064;28;20485;-64
2022/05/24 08:30:11;;;;;;;0.90;0.90;;;16.50;99.90;;;;;;4997607;28;20464;-64
2022/05/24 08:32:38;;;;;;;0.77;0.77;;;16.50;99.90;;;;;;4997559;28;20438;-64
2022/05/24 08:35:06;;;;;;;0.63;0.50;;;16.60;99.90;;;;;;4998411;28;20458;-64
2022/05/24 08:37:33;;;;;;;0.70;0.70;;;16.60;99.90;;;;;;4997415;28;20840;-63
2022/05/24 08:40:01;;;;;;;0.80;0.63;;;16.60;99.90;;;;;;4997606;28;20453;-64
2022/05/24 08:42:37;;;;;;;1.90;0.77;;;16.60;99.90;;;;;;4997219;28;20511;-64
2022/05/24 08:50:48;;;;;;;1.23;0.60;;;16.60;99.90;;;;;;4997166;28;20959;-63
2022/05/24 08:53:24;;;;;;;1.13;0.60;;;16.70;99.90;;;;;;4997501;28;20452;-64
2022/05/24 08:55:51;;;;;;;1.10;0.87;;;16.90;99.90;;;;;;4996817;28;20921;-63
2022/05/24 08:58:29;;;;;;;0.80;0.80;;;17.10;99.90;;;;;;4996713;28;20457;-63
2022/05/24 09:00:57;;;;;;;0.70;0.60;;;17.40;99.90;;;;;;4997473;28;20485;-63
2022/05/24 09:03:26;;;;;;;4.07;0.90;;;17.80;99.90;;;;;;4996914;28;20438;-64
2022/05/24 09:05:58;;;;;;;0.70;0.70;;;18.50;99.90;;;;;;4996971;28;20528;-64
2022/05/24 09:08:28;;;;;;;1.00;0.60;;;19.10;99.90;;;;;;4997078;28;20921;-64
2022/05/24 09:11:08;;;;;;;1.67;0.60;;;19.50;99.90;;;;;;4996824;28;20473;-63
2022/05/24 09:14:03;;;;;;;0.60;0.60;;;19.60;99.90;;;;;;4997033;28;20441;-63
2022/05/24 09:16:49;;;;;;;2.57;0.70;;;19.80;99.90;;;;;;4996742;28;20441;-63
2022/05/24 09:19:22;;;;;;;2.10;0.70;;;19.90;99.90;;;;;;4996477;28;20469;-63
2022/05/24 09:21:52;;;;;;;0.70;0.70;;;20.10;99.90;;;;;;4999821;28;20474;-63
2022/05/24 09:24:28;;;;;;;0.97;0.70;;;20.10;99.90;;;;;;5007272;28;20454;-64
2022/05/24 09:27:03;;;;;;;1.07;0.60;;;20.10;99.90;;;;;;4999526;28;20462;-64
2022/05/24 09:29:31;;;;;;;1.13;0.60;;;20.10;99.90;;;;;;4996702;28;20952;-63
2022/05/24 09:32:04;;;;;;;0.70;0.70;;;20.10;99.90;;;;;;4996366;28;20517;-63
2022/05/24 09:34:33;;;;;;;0.70;0.50;;;20.10;99.90;;;;;;4997092;28;20506;-64
2022/05/24 09:37:02;;;;;;;1.20;0.60;;;20.20;99.90;;;;;;4996367;28;20458;-64
2022/05/24 09:39:31;;;;;;;0.97;0.50;;;20.40;99.90;;;;;;4996074;28;20818;-64
2022/05/24 09:42:00;;;;;;;1.03;0.60;;;20.60;99.90;;;;;;4996398;28;20477;-65
2022/05/24 09:44:28;;;;;;;0.97;0.70;;;20.60;99.90;;;;;;4996523;28;20458;-65
2022/05/24 09:46:55;;;;;;;0.67;0.67;;;20.80;99.90;;;;;;4995873;28;21010;-64
2022/05/24 09:49:27;;;;;;;0.70;0.60;;;21.50;99.90;;;;;;4996099;28;20887;-64
2022/05/24 09:51:56;;;;;;;0.70;0.70;;;22.10;99.90;;;;;;4996258;28;20486;-64
2022/05/24 09:54:26;;;;;;;0.70;0.47;;;22.70;99.90;;;;;;4995807;28;20818;-64
2022/05/24 09:57:02;;;;;;;4.00;0.50;;;22.90;99.90;;;;;;4995844;28;20457;-65
2022/05/24 09:59:29;;;;;;;1.23;0.80;;;23.10;99.90;;;;;;4995559;28;20933;-63
2022/05/24 10:01:56;;;;;;;1.27;0.60;;;23.00;99.90;;;;;;4995331;28;20481;-64
2022/05/24 10:04:28;;;;;;;2.30;0.87;;;23.40;99.90;;;;;;4996020;28;20461;-64
2022/05/24 10:06:58;;;;;;;0.60;0.60;;;23.80;99.90;;;;;;4996921;28;20472;-65
2022/05/24 10:09:40;;;;;;;1.60;0.60;;;24.60;99.00;;;;;;4995900;28;20869;-64
2022/05/24 10:12:19;;;;;;;1.10;0.90;;;25.30;98.20;;;;;;4995867;28;20884;-64
2022/05/24 10:14:56;;;;;;;2.13;0.80;;;25.50;95.30;;;;;;4996398;28;20468;-64
2022/05/24 10:17:32;;;;;;;0.63;0.63;;;25.60;95.20;;;;;;4995896;28;20500;-65
2022/05/24 10:20:10;;;;;;;0.80;0.70;;;25.80;93.80;;;;;;4995597;28;20925;-64
2022/05/24 10:22:48;;;;;;;1.90;0.60;;;25.90;91.50;;;;;;4995577;28;20442;-65
2022/05/24 10:25:22;;;;;;;0.67;0.67;;;26.10;92.20;;;;;;4996192;28;20473;-64
2022/05/24 10:27:59;;;;;;;0.80;0.80;;;26.50;90.20;;;;;;4995845;28;20473;-65
2022/05/24 10:30:31;;;;;;;0.73;0.73;;;27.00;86.00;;;;;;4995567;28;20500;-65
2022/05/24 10:39:21;;;;;;;11.00;9.97;;;28.50;81.10;;;;;;4995946;28;20425;-65
2022/05/24 10:41:59;;;;;;;4.00;0.93;;;28.80;76.20;;;;;;4995597;28;20481;-64
2022/05/24 10:44:39;;;;;;;0.80;0.80;;;29.00;76.10;;;;;;4995442;28;20446;-64
2022/05/24 10:47:08;;;;;;;0.50;0.50;;;29.20;71.60;;;;;;4995256;28;20473;-64
2022/05/24 10:49:43;;;;;;;0.80;0.50;;;28.90;72.40;;;;;;4995113;28;20480;-64
2022/05/24 10:52:17;;;;;;;0.77;0.77;;;28.50;73.60;;;;;;4995176;28;20478;-64
2022/05/24 10:54:48;;;;;;;1.27;1.17;;;28.10;74.00;;;;;;4994972;28;20453;-64
2022/05/24 10:57:20;;;;;;;1.40;0.70;;;27.70;76.10;;;;;;4995072;28;20449;-64
2022/05/24 10:59:55;;;;;;;1.80;0.77;;;27.60;74.50;;;;;;4994942;28;20801;-64
2022/05/24 11:02:30;;;;;;;0.57;0.57;;;27.90;72.20;;;;;;4994927;28;20481;-64
2022/05/24 11:05:05;;;;;;;1.00;0.90;;;27.90;73.50;;;;;;4995772;28;20489;-64
2022/05/24 11:07:35;;;;;;;0.87;0.87;;;27.90;68.10;;;;;;4995249;28;20473;-64
2022/05/24 11:10:09;;;;;;;0.60;0.60;;;27.90;68.40;;;;;;4995068;28;20442;-63
2022/05/24 11:12:41;;;;;;;3.10;2.50;;;27.30;68.80;;;;;;4995093;28;20476;-64
2022/05/24 11:15:15;;;;;;;5.37;1.00;;;26.80;72.20;;;;;;4994921;28;20902;-64
2022/05/24 11:17:41;;;;;;;0.83;0.83;;;26.40;72.10;;;;;;4995001;28;20461;-64
2022/05/24 11:20:14;;;;;;;1.70;1.60;;;25.90;73.20;;;;;;4995001;28;20528;-64
2022/05/24 11:22:46;;;;;;;0.90;0.90;;;26.10;79.00;;;;;;4994963;28;20477;-64
2022/05/24 11:25:19;;;;;;;1.77;0.60;;;26.50;80.40;;;;;;4994977;28;20445;-64
2022/05/24 11:27:51;;;;;;;2.43;1.00;;;26.70;75.20;;;;;;4994207;28;20876;-64
2022/05/24 11:30:32;;;;;;;1.73;0.80;;;26.70;73.20;;;;;;4994549;28;20442;-65
2022/05/24 11:33:09;;;;;;;0.80;0.80;;;26.70;71.40;;;;;;4994677;28;20456;-64
2022/05/24 11:35:39;;;;;;;0.60;0.60;;;26.70;77.30;;;;;;4994167;28;20448;-65
2022/05/24 11:38:14;;;;;;;1.73;0.83;;;26.80;73.40;;;;;;4994734;28;20501;-64
2022/05/24 11:40:56;;;;;;;0.60;0.60;;;26.30;67.70;;;;;;4995259;28;20484;-64
2022/05/24 11:43:59;;;;;;;0.70;0.70;;;25.70;70.40;;;;;;4994631;28;20448;-64
2022/05/24 11:46:44;;;;;;;1.23;0.73;;;25.20;69.10;;;;;;4995581;28;20454;-64
2022/05/24 11:49:33;;;;;;;1.27;0.67;;;24.60;71.30;;;;;;4998451;28;20995;-65
2022/05/24 11:52:02;;;;;;;0.77;0.70;;;23.90;74.40;;;;;;4998106;28;20474;-65
2022/05/24 11:54:57;;;;;;;1.10;0.90;;;23.90;76.20;;;;;;4998252;28;20949;-65
2022/05/24 11:57:29;;;;;;;1.97;0.80;;;24.10;80.60;;;;;;4952678;28;20465;-65
2022/05/24 11:59:56;;;;;;;0.80;0.60;;;24.30;77.10;;;;;;4998590;28;20453;-64
2022/05/24 12:09:09;;;;;;;0.60;0.60;;;24.40;81.80;;;;;;4998184;28;20457;-65
2022/05/24 12:11:37;;;;;;;2.87;0.90;;;24.60;75.60;;;;;;4997573;28;20524;-63
2022/05/24 12:14:20;;;;;;;1.30;0.83;;;24.60;76.50;;;;;;4997950;28;20491;-63
2022/05/24 12:17:04;;;;;;;0.70;0.70;;;24.20;74.10;;;;;;4998145;28;20852;-64
2022/05/24 12:19:52;;;;;;;0.60;0.60;;;24.20;73.70;;;;;;4995493;28;20481;-63
2022/05/24 12:22:21;;;;;;;0.70;0.70;;;24.30;81.20;;;;;;4991529;28;20556;-63
2022/05/24 12:24:51;;;;;;;0.97;0.70;;;24.70;76.70;;;;;;4997815;28;20457;-65
2022/05/24 12:27:45;;;;;;;0.60;0.60;;;24.90;72.10;;;;;;4997557;28;20477;-64
2022/05/24 12:30:27;;;;;;;2.73;0.70;;;24.90;69.30;;;;;;4997532;28;20854;-64
2022/05/24 12:32:56;;;;;;;2.17;0.60;;;24.90;76.90;;;;;;4997893;28;20445;-67
2022/05/24 12:35:24;;;;;;;1.43;0.87;;;24.80;72.30;;;;;;4997545;28;20539;-65
2022/05/24 12:37:53;;;;;;;1.60;0.70;;;24.60;75.10;;;;;;4997672;28;20453;-64
2022/05/24 12:40:22;;;;;;;1.23;0.80;;;24.30;74.40;;;;;;4997491;28;20454;-64
2022/05/24 12:42:52;;;;;;;1.10;1.10;;;24.10;72.50;;;;;;4997298;28;20458;-65
2022/05/24 12:45:27;;;;;;;0.60;0.60;;;23.80;75.10;;;;;;4997254;28;20505;-63
2022/05/24 12:47:57;;;;;;;0.97;0.90;;;23.60;71.70;;;;;;4997308;28;20469;-63
2022/05/24 12:50:27;;;;;;;1.80;0.70;;;23.60;80.50;;;;;;4996832;28;20953;-64
2022/05/24 12:53:02;;;;;;;0.83;0.70;;;23.80;77.70;;;;;;4997634;28;20449;-64
2022/05/24 12:58:31;;;;;;;1.00;0.90;;;24.10;75.80;;;;;;4997156;28;20412;-64
2022/05/24 13:01:10;;;;;;;1.03;0.73;;;23.90;75.40;;;;;;4996780;28;20555;-64
2022/05/24 13:03:37;;;;;;;0.90;0.90;;;23.70;74.80;;;;;;4996982;28;20464;-63
2022/05/24 13:06:04;;;;;;;0.77;0.70;;;23.60;74.40;;;;;;4997035;28;20453;-64
2022/05/24 13:08:31;;;;;;;2.80;1.13;;;23.40;76.60;;;;;;4996742;28;20481;-63
2022/05/24 13:10:59;;;;;;;1.50;1.10;;;23.20;79.40;;;;;;4996740;28;20488;-63
2022/05/24 13:13:27;;;;;;;1.57;0.90;;;23.10;80.00;;;;;;4997322;28;20458;-63
2022/05/24 13:15:56;;;;;;;1.80;0.90;;;22.90;79.60;;;;;;4996654;28;20464;-63
2022/05/24 13:18:25;;;;;;;0.83;0.60;;;22.70;79.40;;;;;;4996725;28;20541;-63
2022/05/24 13:20:55;;;;;;;0.90;0.73;;;22.70;82.00;;;;;;4996341;28;20477;-63
2022/05/24 13:23:25;;;;;;;1.00;0.90;;;22.80;79.30;;;;;;4996626;28;20540;-64
2022/05/24 13:25:55;;;;;;;1.13;0.87;;;22.80;81.80;;;;;;4997098;28;20461;-63
2022/05/24 13:28:42;;;;;;;1.03;0.70;;;22.90;82.30;;;;;;4996688;28;20480;-64
2022/05/24 13:33:57;;;;;;;2.23;0.80;;;23.10;81.90;;;;;;4996692;28;20426;-64
2022/05/24 13:36:29;;;;;;;1.23;0.83;;;23.10;79.80;;;;;;4996196;28;20465;-64
2022/05/24 13:39:13;;;;;;;1.33;0.80;;;23.10;79.90;;;;;;4996187;28;20924;-64
2022/05/24 13:41:42;;;;;;;2.00;0.80;;;23.20;80.70;;;;;;4995999;28;21043;-64
2022/05/24 13:44:23;;;;;;;1.00;0.90;;;23.50;81.60;;;;;;4996381;28;20458;-64
2022/05/24 13:46:54;;;;;;;0.80;0.80;;;24.00;82.10;;;;;;4995947;28;20441;-64
2022/05/24 13:49:37;;;;;;;0.90;0.80;;;24.30;78.00;;;;;;4995926;28;20430;-64
2022/05/24 13:52:20;;;;;;;0.80;0.80;;;24.50;72.60;;;;;;4996256;28;20977;-64
2022/05/24 13:54:49;;;;;;;2.07;1.00;;;24.70;80.10;;;;;;4996023;28;20437;-63
2022/05/24 13:57:22;;;;;;;2.53;1.10;;;24.90;78.70;;;;;;5003863;28;21025;-64
2022/05/24 13:59:59;;;;;;;4.63;1.00;;;25.10;78.60;;;;;;5004907;28;20984;-65
2022/05/24 14:02:26;;;;;;;1.50;1.03;;;25.10;78.00;;;;;;4998533;28;20524;-63
2022/05/24 14:04:53;;;;;;;1.60;0.80;;;25.10;83.00;;;;;;4996985;28;20481;-63
2022/05/24 14:07:20;;;;;;;1.90;1.10;;;25.20;81.50;;;;;;4995880;28;20477;-64
2022/05/24 14:09:47;;;;;;;1.67;0.90;;;25.00;74.00;;;;;;4996022;28;20528;-63
2022/05/24 14:12:14;;;;;;;1.70;1.20;;;24.80;76.90;;;;;;4996076;28;20484;-64
2022/05/24 14:14:43;;;;;;;1.10;1.00;;;24.90;75.30;;;;;;4995951;28;20442;-65
2022/05/24 14:17:11;;;;;;;0.93;0.83;;;24.70;77.70;;;;;;5001902;28;20875;-65
2022/05/24 14:19:38;;;;;;;1.70;1.30;;;24.40;76.10;;;;;;5007045;28;20454;-64
2022/05/24 14:22:05;;;;;;;1.60;0.93;;;24.20;77.40;;;;;;4997176;28;20505;-64
2022/05/24 14:24:40;;;;;;;0.80;0.80;;;23.80;79.60;;;;;;4997476;28;20454;-64
2022/05/24 14:27:08;;;;;;;0.70;0.70;;;23.80;80.80;;;;;;4995625;28;20442;-64
2022/05/24 14:29:35;;;;;;;1.03;0.90;;;23.80;79.40;;;;;;4995055;28;20465;-65
2022/05/24 14:32:02;;;;;;;0.80;0.80;;;23.60;79.40;;;;;;4995042;28;20484;-64
2022/05/24 14:34:30;;;;;;;3.00;0.80;;;23.40;81.10;;;;;;4997159;28;20458;-64
2022/05/24 14:36:58;;;;;;;1.13;1.00;;;23.40;81.20;;;;;;4997213;28;20457;-64
2022/05/24 14:39:25;;;;;;;1.77;0.77;;;23.50;82.20;;;;;;4995993;28;20477;-64
2022/05/24 14:41:51;;;;;;;1.07;0.80;;;23.40;79.60;;;;;;4995222;28;20513;-64
2022/05/24 14:44:21;;;;;;;1.30;0.80;;;23.60;80.10;;;;;;4995207;28;20461;-65
2022/05/24 14:46:48;;;;;;;0.77;0.77;;;23.70;80.00;;;;;;4995289;28;20458;-64
2022/05/24 14:49:15;;;;;;;1.70;1.07;;;23.70;77.90;;;;;;4994891;28;20572;-65
2022/05/24 14:51:48;;;;;;;0.80;0.80;;;23.60;79.00;;;;;;4994727;28;21044;-65
2022/05/24 14:54:15;;;;;;;1.20;1.10;;;23.40;75.40;;;;;;4995148;28;20442;-65
2022/05/24 14:56:41;;;;;;;1.10;0.83;;;23.10;78.40;;;;;;4995014;28;20592;-64
2022/05/24 14:59:10;;;;;;;0.80;0.80;;;22.80;77.90;;;;;;4995013;28;20454;-64
2022/05/24 15:01:38;;;;;;;0.67;0.67;;;22.80;81.10;;;;;;4994516;28;20585;-64
2022/05/24 15:04:06;;;;;;;3.57;0.83;;;22.60;78.60;;;;;;4994836;28;20453;-64
2022/05/24 15:06:33;;;;;;;0.80;0.80;;;22.50;80.10;;;;;;4994523;28;20946;-64
2022/05/24 15:17:33;;;;;;;0.77;0.77;;;23.30;77.00;;;;;;4994555;28;20417;-64
2022/05/24 15:20:00;;;;;;;1.50;1.10;;;23.40;82.20;;;;;;4994277;28;20512;-64
2022/05/24 15:22:27;;;;;;;1.10;0.90;;;23.60;80.00;;;;;;4994107;28;21001;-64
2022/05/24 15:24:55;;;;;;;4.63;0.80;;;23.90;79.30;;;;;;4994323;28;20457;-64
2022/05/24 15:27:22;;;;;;;1.90;0.73;;;24.10;75.10;;;;;;4994456;28;20457;-64
2022/05/24 15:29:48;;;;;;;0.60;0.60;;;24.20;77.60;;;;;;4994321;28;20457;-64
2022/05/24 15:32:16;;;;;;;1.53;0.63;;;24.30;78.70;;;;;;4994401;28;20477;-64
2022/05/24 15:34:42;;;;;;;0.60;0.60;;;24.30;75.80;;;;;;4994595;28;20481;-64
2022/05/24 15:37:09;;;;;;;2.23;0.97;;;24.30;78.00;;;;;;4994857;28;20453;-64
2022/05/24 15:39:36;;;;;;;1.03;0.93;;;24.30;75.90;;;;;;4994642;28;20453;-64
2022/05/24 15:42:07;;;;;;;2.60;0.80;;;24.30;76.70;;;;;;4994447;28;20528;-64
2022/05/24 15:44:35;;;;;;;1.30;0.80;;;24.20;74.90;;;;;;4994328;28;20922;-64
2022/05/24 15:47:02;;;;;;;3.33;1.20;;;24.10;76.10;;;;;;4994886;28;20508;-64
2022/05/24 15:49:29;;;;;;;1.63;1.30;;;24.10;76.50;;;;;;4994307;28;20481;-64
2022/05/24 15:51:56;;;;;;;1.60;1.30;;;23.80;76.80;;;;;;4994235;28;20847;-64
2022/05/24 15:54:23;;;;;;;0.80;0.80;;;23.70;79.40;;;;;;4993983;28;20948;-64
2022/05/24 15:56:50;;;;;;;1.57;0.90;;;23.60;77.10;;;;;;4993978;28;20457;-63
2022/05/24 15:59:18;;;;;;;2.30;1.33;;;23.60;76.10;;;;;;4994455;28;20854;-64
2022/05/24 16:01:45;;;;;;;3.33;0.90;;;23.50;74.80;;;;;;4993882;28;20485;-64
2022/05/24 16:04:12;;;;;;;2.27;0.77;;;23.40;76.40;;;;;;4994207;28;20462;-64
2022/05/24 16:12:11;;;;;;;0.80;0.80;;;23.50;76.50;;;;;;4994028;28;20459;-64
2022/05/24 16:14:40;;;;;;;0.60;0.60;;;23.50;76.50;;;;;;4993974;28;20945;-64
2022/05/24 16:17:10;;;;;;;1.00;0.90;;;23.40;75.40;;;;;;4994338;28;20453;-63
2022/05/24 16:19:37;;;;;;;0.87;0.80;;;23.30;75.10;;;;;;4994604;28;20438;-64
2022/05/24 16:22:05;;;;;;;0.77;0.77;;;23.10;75.50;;;;;;4994880;28;20505;-64
2022/05/24 16:24:33;;;;;;;1.70;1.03;;;23.00;76.50;;;;;;4993894;28;20462;-64
2022/05/24 16:27:00;;;;;;;0.97;0.90;;;22.80;77.90;;;;;;4993804;28;20827;-64
2022/05/24 16:29:27;;;;;;;0.83;0.83;;;22.70;77.50;;;;;;4994043;28;20481;-64
2022/05/24 16:31:55;;;;;;;1.00;0.60;;;22.50;77.50;;;;;;4997385;28;20474;-63
2022/05/24 16:34:22;;;;;;;0.70;0.70;;;22.30;77.30;;;;;;4997516;28;20488;-63
2022/05/24 16:36:49;;;;;;;1.37;0.90;;;22.20;77.60;;;;;;4997368;28;20457;-65
2022/05/24 16:39:17;;;;;;;1.47;0.80;;;22.00;76.80;;;;;;4997565;28;20446;-63
2022/05/24 16:41:43;;;;;;;0.80;0.80;;;21.90;79.80;;;;;;4997472;28;20952;-63
2022/05/24 16:44:11;;;;;;;1.40;0.70;;;21.90;79.10;;;;;;4998372;28;20460;-64
2022/05/24 16:46:38;;;;;;;2.00;0.70;;;21.80;77.70;;;;;;4999693;28;20465;-64
2022/05/24 16:49:06;;;;;;;0.60;0.60;;;21.70;78.90;;;;;;4997766;28;20478;-64
2022/05/24 16:51:40;;;;;;;3.27;0.97;;;21.60;80.30;;;;;;4997276;28;20480;-64
2022/05/24 16:59:33;;;;;;;0.73;0.60;;;21.30;79.40;;;;;;4996938;28;21006;-64
2022/05/24 17:02:00;;;;;;;1.43;0.83;;;21.30;80.30;;;;;;4996506;28;20478;-64
2022/05/24 17:04:28;;;;;;;3.50;0.80;;;21.30;79.80;;;;;;4996937;28;20456;-64
2022/05/24 17:06:54;;;;;;;0.80;0.80;;;21.30;81.00;;;;;;4996978;28;20452;-64
2022/05/24 17:09:21;;;;;;;0.83;0.83;;;21.30;80.60;;;;;;4997262;28;20478;-64
2022/05/24 17:11:48;;;;;;;0.70;0.70;;;21.30;82.40;;;;;;4996370;28;20478;-64
2022/05/24 17:14:15;;;;;;;1.83;0.90;;;21.20;80.80;;;;;;4996684;28;20457;-64
2022/05/24 17:16:41;;;;;;;0.80;0.80;;;21.30;81.20;;;;;;4996674;28;20453;-63
2022/05/24 17:19:10;;;;;;;1.90;0.63;;;21.20;80.50;;;;;;4996744;28;20462;-65
2022/05/24 17:21:40;;;;;;;1.43;0.97;;;21.20;80.10;;;;;;4996833;28;20573;-64
2022/05/24 17:24:08;;;;;;;0.80;0.77;;;21.10;78.80;;;;;;4997529;28;20466;-65
2022/05/24 17:26:35;;;;;;;1.20;0.60;;;21.00;78.90;;;;;;4997340;28;20843;-65
2022/05/24 17:29:01;;;;;;;0.80;0.80;;;21.00;81.50;;;;;;4997528;28;20470;-64
2022/05/24 17:31:28;;;;;;;1.40;0.90;;;20.90;80.00;;;;;;4996861;28;20474;-65
2022/05/24 17:34:02;;;;;;;0.83;0.70;;;20.80;79.50;;;;;;4996892;28;20465;-65
2022/05/24 17:36:29;;;;;;;0.90;0.80;;;20.80;81.00;;;;;;4996316;28;20928;-65
2022/05/24 17:38:58;;;;;;;1.57;0.70;;;20.70;80.20;;;;;;4996587;28;20454;-65
2022/05/24 17:41:24;;;;;;;1.13;0.70;;;20.70;81.40;;;;;;4998219;28;20891;-65
2022/05/24 17:43:51;;;;;;;1.00;0.80;;;20.60;81.20;;;;;;4999041;28;20839;-65
2022/05/24 17:46:18;;;;;;;0.63;0.63;;;20.60;81.80;;;;;;5000294;28;20527;-64
2022/05/24 17:48:48;;;;;;;0.87;0.80;;;20.60;81.40;;;;;;5003586;28;20573;-63
2022/05/24 17:51:16;;;;;;;3.77;0.70;;;20.50;82.10;;;;;;5003919;28;20501;-64
2022/05/24 17:53:43;;;;;;;1.70;1.00;;;20.50;82.50;;;;;;5001828;28;20457;-64